Terminal Aerodrome Forecast
Issued by NWS

Home | Current Version | Previous Version | Text Only | Print | Product List | Glossary On
Versions: 1 2 3 4 5 6 7 8 9 10 11 12 13 14 15 16
000
FTUS46 KMTR 201858 AAA
TAFSTS
TAF AMD
KSTS 201858Z 2019/2118 VRB05KT P6SM BKN035 OVC050
     FM202000 27014KT P6SM BKN035 OVC050
     FM210400 30009KT P6SM OVC020
     FM211000 32006KT P6SM OVC010
     FM211400 33007KT P6SM OVC010=

USA.gov is the U.S. government's official web portal to all federal, state and local government web resources and services.